Time;durP1;ratioP1;P1;durP2;ratioP2;P2;SDS_P1;SDS_P2;PMS_P1;PMS_P2;Temp;Humidity;BMP_temperature;BMP_pressure;BME280_temperature;BME280_humidity;BME280_pressure;Samples;Min_cycle;Max_cycle;Signal;HPM_P1;HPM_P2
2022/11/27 14:15:10;;;;;;;36.42;8.18;;;;;;;0.01;0.00;59042.03;5105189;28;20573;-54
2022/11/27 14:17:44;;;;;;;28.83;8.23;;;;;;;0.01;0.00;59042.03;5112556;28;20779;-55
2022/11/27 14:20:10;;;;;;;30.08;8.13;;;;;;;0.01;0.00;59042.03;5115281;28;20138;-54
2022/11/27 14:22:56;;;;;;;31.67;7.40;;;;;;;0.01;0.00;59042.03;5115228;28;20167;-53
2022/11/27 14:25:24;;;;;;;22.80;5.95;;;;;;;0.01;0.00;59042.03;5116469;28;20492;-56
2022/11/27 14:28:03;;;;;;;26.20;7.90;;;;;;;0.01;0.00;59042.03;5115160;28;20702;-54
2022/11/27 14:30:30;;;;;;;27.63;7.22;;;;;;;0.01;0.00;59042.03;5114861;28;20027;-56
2022/11/27 14:32:56;;;;;;;26.50;6.30;;;;;;;0.01;0.00;59042.03;5117051;28;20023;-54
2022/11/27 14:35:23;;;;;;;28.42;7.70;;;;;;;0.01;0.00;59042.03;5117745;28;20100;-54
2022/11/27 14:37:49;;;;;;;30.70;8.05;;;;;;;0.01;0.00;59042.03;5116706;28;20054;-54
2022/11/27 14:40:22;;;;;;;31.88;7.82;;;;;;;0.01;0.00;59042.03;5116727;27;20043;-54
2022/11/27 14:42:48;;;;;;;26.05;7.10;;;;;;;0.01;0.00;59042.03;5115877;28;20106;-57
2022/11/27 14:45:16;;;;;;;20.20;4.85;;;;;;;0.01;0.00;59042.03;5115410;28;20431;-54
2022/11/27 14:47:49;;;;;;;20.40;6.68;;;;;;;0.01;0.00;59042.03;5117689;27;20023;-54
2022/11/27 14:50:15;;;;;;;29.75;7.90;;;;;;;0.01;0.00;59042.03;5120694;27;20061;-54
2022/11/27 14:52:43;;;;;;;27.88;7.30;;;;;;;0.01;0.00;59042.03;5121084;27;20571;-55
2022/11/27 14:55:14;;;;;;;31.67;7.95;;;;;;;0.01;0.00;59042.03;5121021;27;20077;-55
2022/11/27 14:57:40;;;;;;;29.93;7.53;;;;;;;0.01;0.00;59042.03;5111790;27;20019;-55
2022/11/27 15:00:25;;;;;;;30.83;7.43;;;;;;;0.01;0.00;59042.03;5078183;28;20270;-54
2022/11/27 15:02:52;;;;;;;32.58;8.23;;;;;;;0.01;0.00;59042.03;5100706;28;20058;-53
2022/11/27 15:05:27;;;;;;;31.20;7.85;;;;;;;0.01;0.00;59042.03;5103705;27;20035;-55
2022/11/27 15:07:55;;;;;;;31.48;8.18;;;;;;;0.01;0.00;59042.03;5121335;27;20470;-56
2022/11/27 15:10:32;;;;;;;31.27;8.30;;;;;;;0.01;0.00;59042.03;5117795;27;20102;-55
2022/11/27 15:13:00;;;;;;;24.48;7.18;;;;;;;0.01;0.00;59042.03;5099388;28;20024;-54
2022/11/27 15:15:28;;;;;;;28.35;7.78;;;;;;;0.01;0.00;59042.03;5100449;27;20066;-54
2022/11/27 15:18:01;;;;;;;26.13;7.57;;;;;;;0.01;0.00;59042.03;5120867;27;20026;-57
2022/11/27 15:20:33;;;;;;;35.22;8.93;;;;;;;0.01;0.00;59042.03;5119610;27;20504;-57
2022/11/27 15:22:59;;;;;;;27.02;6.78;;;;;;;0.01;0.00;59042.03;5120160;27;20045;-54
2022/11/27 15:25:37;;;;;;;31.60;8.75;;;;;;;0.01;0.00;59042.03;5120501;27;20035;-57
2022/11/27 15:28:21;;;;;;;27.02;7.72;;;;;;;0.01;0.00;59042.03;5120023;27;20822;-55
2022/11/27 15:30:47;;;;;;;30.30;8.45;;;;;;;0.01;0.00;59042.03;5112744;27;20051;-54
2022/11/27 15:33:31;;;;;;;28.15;8.60;;;;;;;0.01;0.00;59042.03;5101101;27;20016;-57
2022/11/27 15:36:13;;;;;;;31.33;8.93;;;;;;;0.01;0.00;59042.03;5099422;28;20685;-55
2022/11/27 15:38:40;;;;;;;29.55;8.68;;;;;;;0.01;0.00;59042.03;5100157;28;20028;-56
2022/11/27 15:41:05;;;;;;;24.33;7.53;;;;;;;0.01;0.00;59042.03;5099451;28;20034;-56
2022/11/27 15:43:30;;;;;;;25.15;8.20;;;;;;;0.01;0.00;59042.03;5098143;28;20099;-55
2022/11/27 15:45:56;;;;;;;29.88;9.20;;;;;;;0.01;0.00;59042.03;5105231;27;20153;-56
2022/11/27 15:48:22;;;;;;;24.10;7.95;;;;;;;0.01;0.00;59042.03;5120763;27;20061;-55
2022/11/27 15:50:47;;;;;;;26.25;8.85;;;;;;;0.01;0.00;59042.03;5119565;27;20404;-57
2022/11/27 15:53:12;;;;;;;24.70;8.15;;;;;;;0.01;0.00;59042.03;5120378;27;20035;-56
2022/11/27 15:55:38;;;;;;;20.08;6.35;;;;;;;0.01;0.00;59042.03;5115891;27;20485;-54
2022/11/27 15:58:03;;;;;;;30.75;8.50;;;;;;;0.01;0.00;59042.03;5097486;28;20026;-55
2022/11/27 16:00:28;;;;;;;25.55;8.30;;;;;;;0.01;0.00;59042.03;5100479;27;20039;-54
2022/11/27 16:02:54;;;;;;;27.70;7.53;;;;;;;0.01;0.00;59042.03;5120139;27;20030;-54
2022/11/27 16:05:20;;;;;;;24.77;8.77;;;;;;;0.01;0.00;59042.03;5119603;27;20077;-55
2022/11/27 16:07:46;;;;;;;24.73;8.38;;;;;;;0.01;0.00;59042.03;5120420;27;20614;-54
2022/11/27 16:10:12;;;;;;;26.90;8.93;;;;;;;0.01;0.00;59042.03;5118137;27;20035;-57
2022/11/27 16:12:37;;;;;;;27.58;7.78;;;;;;;0.01;0.00;59042.03;5118908;27;20615;-54
2022/11/27 16:15:05;;;;;;;29.48;8.90;;;;;;;0.01;0.00;59042.03;5117036;27;20031;-54
2022/11/27 16:17:31;;;;;;;29.40;8.70;;;;;;;0.01;0.00;59042.03;5119191;27;20194;-56
2022/11/27 16:19:56;;;;;;;30.45;8.70;;;;;;;0.01;0.00;59042.03;5119589;27;20023;-58
2022/11/27 16:22:21;;;;;;;37.90;9.80;;;;;;;0.01;0.00;59042.03;5118668;27;20039;-56
2022/11/27 16:24:47;;;;;;;28.70;8.75;;;;;;;0.01;0.00;59042.03;5119641;27;20021;-58
2022/11/27 16:27:12;;;;;;;33.30;9.38;;;;;;;0.01;0.00;59042.03;5117793;27;20039;-56
2022/11/27 16:29:37;;;;;;;34.15;9.23;;;;;;;0.01;0.00;59042.03;5117037;27;20031;-56
2022/11/27 16:32:04;;;;;;;28.73;8.00;;;;;;;0.01;0.00;59042.03;5118553;27;20039;-56
2022/11/27 16:34:29;;;;;;;36.78;11.25;;;;;;;0.01;0.00;59042.03;5118785;27;20019;-57
2022/11/27 16:36:54;;;;;;;33.80;9.02;;;;;;;0.01;0.00;59042.03;5119062;27;20034;-55
2022/11/27 16:39:20;;;;;;;51.05;11.90;;;;;;;0.01;0.00;59042.03;5117159;27;20366;-54
2022/11/27 16:41:45;;;;;;;34.42;9.65;;;;;;;0.01;0.00;59042.03;5114592;27;20091;-56
2022/11/27 16:44:13;;;;;;;30.42;9.90;;;;;;;0.01;0.00;59042.03;5117066;27;20404;-54
2022/11/27 16:46:38;;;;;;;40.97;11.45;;;;;;;0.01;0.00;59042.03;5105215;27;20089;-55
2022/11/27 16:49:07;;;;;;;37.38;9.98;;;;;;;0.01;0.00;59042.03;5098744;28;20031;-56
2022/11/27 16:51:35;;;;;;;41.17;10.90;;;;;;;0.01;0.00;59042.03;5096752;28;20036;-56
2022/11/27 16:54:03;;;;;;;39.15;10.00;;;;;;;0.01;0.00;59042.03;5098936;28;20043;-55
2022/11/27 16:56:30;;;;;;;41.58;11.75;;;;;;;0.01;0.00;59042.03;5097790;28;20031;-57
2022/11/27 16:58:57;;;;;;;42.50;11.27;;;;;;;0.01;0.00;59042.03;5094961;28;20860;-54
2022/11/27 17:01:33;;;;;;;44.55;11.63;;;;;;;0.01;0.00;59042.03;5107627;27;21072;-56
2022/11/27 17:03:58;;;;;;;28.10;8.35;;;;;;;0.01;0.00;59042.03;5118967;27;20112;-55
2022/11/27 17:06:27;;;;;;;33.72;9.48;;;;;;;0.01;0.00;59042.03;5098502;27;20277;-57
2022/11/27 17:08:53;;;;;;;37.90;10.32;;;;;;;0.01;0.00;59042.03;5118603;27;20434;-55
2022/11/27 17:11:21;;;;;;;33.03;9.07;;;;;;;0.01;0.00;59042.03;5116930;27;20061;-56
2022/11/27 17:13:48;;;;;;;39.53;10.30;;;;;;;0.01;0.00;59042.03;5115771;27;20080;-54
2022/11/27 17:16:14;;;;;;;35.10;10.23;;;;;;;0.01;0.00;59042.03;5116799;27;20046;-55
2022/11/27 17:18:41;;;;;;;41.30;11.15;;;;;;;0.01;0.00;59042.03;5118466;27;20026;-54
2022/11/27 17:21:09;;;;;;;46.17;10.35;;;;;;;0.01;0.00;59042.03;5117080;27;20046;-54
2022/11/27 17:23:36;;;;;;;43.13;9.25;;;;;;;0.01;0.00;59042.03;5099967;27;20371;-56
2022/11/27 17:26:06;;;;;;;48.92;11.60;;;;;;;0.01;0.00;59042.03;5117875;27;20058;-56
2022/11/27 17:28:32;;;;;;;43.10;8.73;;;;;;;0.01;0.00;59042.03;5116485;27;20486;-55
2022/11/27 17:30:57;;;;;;;45.22;11.15;;;;;;;0.01;0.00;59042.03;5116254;27;20031;-56
2022/11/27 17:33:22;;;;;;;40.55;10.75;;;;;;;0.01;0.00;59042.03;5118257;27;20031;-57
2022/11/27 17:35:48;;;;;;;45.17;11.32;;;;;;;0.01;0.00;59042.03;5117190;27;20031;-57
2022/11/27 17:38:13;;;;;;;48.90;11.52;;;;;;;0.01;0.00;59042.03;5118357;27;20034;-58
2022/11/27 17:40:38;;;;;;;42.95;10.93;;;;;;;0.01;0.00;59042.03;5114260;27;20038;-58
2022/11/27 17:43:04;;;;;;;43.47;11.38;;;;;;;0.01;0.00;59042.03;5117249;27;20030;-54
2022/11/27 17:45:29;;;;;;;45.15;11.82;;;;;;;0.01;0.00;59042.03;5116190;27;20192;-53
2022/11/27 17:47:54;;;;;;;41.17;10.32;;;;;;;0.01;0.00;59042.03;5117884;27;20072;-54
2022/11/27 17:50:20;;;;;;;47.90;11.80;;;;;;;0.01;0.00;59042.03;5117215;27;20206;-54
2022/11/27 17:52:45;;;;;;;43.75;11.52;;;;;;;0.01;0.00;59042.03;5117437;27;20027;-54
2022/11/27 17:55:10;;;;;;;42.00;11.43;;;;;;;0.01;0.00;59042.03;5117807;27;20031;-54
2022/11/27 17:57:35;;;;;;;48.95;12.23;;;;;;;0.01;0.00;59042.03;5115972;27;20164;-54
2022/11/27 18:00:01;;;;;;;47.33;12.32;;;;;;;0.01;0.00;59042.03;5116176;27;20019;-55
2022/11/27 18:02:26;;;;;;;42.65;11.90;;;;;;;0.01;0.00;59042.03;5116968;27;20074;-57
2022/11/27 18:04:51;;;;;;;41.30;11.88;;;;;;;0.01;0.00;59042.03;5118406;27;20090;-56
2022/11/27 18:07:17;;;;;;;45.08;13.02;;;;;;;0.01;0.00;59042.03;5117673;27;20039;-57
2022/11/27 18:09:43;;;;;;;50.88;13.00;;;;;;;0.01;0.00;59042.03;5117728;27;20065;-59
2022/11/27 18:12:08;;;;;;;45.55;11.77;;;;;;;0.01;0.00;59042.03;5099203;28;20047;-56
2022/11/27 18:14:34;;;;;;;50.47;13.10;;;;;;;0.01;0.00;59042.03;5093882;28;20062;-55
2022/11/27 18:17:03;;;;;;;44.58;11.85;;;;;;;0.01;0.00;59042.03;5112950;28;20031;-56
2022/11/27 18:19:30;;;;;;;45.35;12.13;;;;;;;0.01;0.00;59042.03;5117615;28;20027;-55
2022/11/27 18:21:56;;;;;;;46.00;12.07;;;;;;;0.01;0.00;59042.03;5116971;27;20034;-55
2022/11/27 18:24:21;;;;;;;51.83;14.38;;;;;;;0.01;0.00;59042.03;5103527;27;20035;-54
2022/11/27 18:26:47;;;;;;;57.72;13.48;;;;;;;0.01;0.00;59042.03;5106690;27;20659;-53
2022/11/27 18:29:12;;;;;;;54.47;14.43;;;;;;;0.01;0.00;59042.03;5098625;28;20050;-53
2022/11/27 18:31:37;;;;;;;52.08;14.85;;;;;;;0.01;0.00;59042.03;5114142;27;20393;-55
2022/11/27 18:34:04;;;;;;;52.28;14.60;;;;;;;0.01;0.00;59042.03;5121738;27;20700;-53
2022/11/27 18:36:29;;;;;;;56.30;16.45;;;;;;;0.01;0.00;59042.03;5121337;27;20027;-54
2022/11/27 18:38:55;;;;;;;63.30;15.82;;;;;;;0.01;0.00;59042.03;5121373;27;20464;-55
2022/11/27 18:41:23;;;;;;;58.50;15.98;;;;;;;0.01;0.00;59042.03;5107611;27;20047;-54
2022/11/27 18:43:49;;;;;;;60.67;17.65;;;;;;;0.01;0.00;59042.03;5099602;28;20007;-54
2022/11/27 18:46:18;;;;;;;55.42;14.75;;;;;;;0.01;0.00;59042.03;5108716;27;20039;-53
2022/11/27 18:48:46;;;;;;;55.85;13.77;;;;;;;0.01;0.00;59042.03;5121541;27;20034;-53
2022/11/27 18:51:20;;;;;;;50.38;12.82;;;;;;;0.01;0.00;59042.03;5120565;27;20035;-57
2022/11/27 18:53:46;;;;;;;37.97;11.52;;;;;;;0.01;0.00;59042.03;5120727;27;20027;-55
2022/11/27 18:56:17;;;;;;;51.53;13.57;;;;;;;0.01;0.00;59042.03;5120825;27;20042;-57
2022/11/27 18:58:44;;;;;;;51.28;12.93;;;;;;;0.01;0.00;59042.03;5119631;27;20126;-54
2022/11/27 19:01:12;;;;;;;58.78;12.65;;;;;;;0.01;0.00;59042.03;5116044;27;20050;-56
2022/11/27 19:03:38;;;;;;;53.92;12.07;;;;;;;0.01;0.00;59042.03;5120480;27;20418;-54
2022/11/27 19:06:06;;;;;;;48.60;12.15;;;;;;;0.01;0.00;59042.03;5120765;27;20142;-54
2022/11/27 19:08:32;;;;;;;53.00;12.10;;;;;;;0.01;0.00;59042.03;5120547;27;20035;-53
2022/11/27 19:11:03;;;;;;;53.25;13.18;;;;;;;0.01;0.00;59042.03;5120375;27;20078;-55
2022/11/27 19:13:29;;;;;;;49.45;11.80;;;;;;;0.01;0.00;59042.03;5118570;27;20103;-54
2022/11/27 19:15:55;;;;;;;44.00;12.05;;;;;;;0.01;0.00;59042.03;5118786;27;20058;-55
2022/11/27 19:18:21;;;;;;;52.72;13.20;;;;;;;0.01;0.00;59042.03;5120955;27;20528;-54
2022/11/27 19:20:47;;;;;;;44.80;9.32;;;;;;;0.01;0.00;59042.03;5120351;27;20027;-54
2022/11/27 19:23:14;;;;;;;47.63;12.52;;;;;;;0.01;0.00;59042.03;5121017;27;20594;-54
2022/11/27 19:25:40;;;;;;;44.92;11.57;;;;;;;0.01;0.00;59042.03;5120367;27;20037;-55
2022/11/27 19:28:07;;;;;;;45.08;12.32;;;;;;;0.01;0.00;59042.03;5120011;27;20049;-52
2022/11/27 19:30:37;;;;;;;50.60;11.73;;;;;;;0.01;0.00;59042.03;5118230;27;20046;-56
2022/11/27 19:33:03;;;;;;;36.03;11.13;;;;;;;0.01;0.00;59042.03;5120844;27;20027;-54
2022/11/27 19:35:30;;;;;;;42.58;11.00;;;;;;;0.01;0.00;59042.03;5119341;27;20042;-55
2022/11/27 19:37:55;;;;;;;45.30;12.65;;;;;;;0.01;0.00;59042.03;5120517;27;20015;-56
2022/11/27 19:40:21;;;;;;;45.42;11.70;;;;;;;0.01;0.00;59042.03;5119792;27;20062;-54
2022/11/27 19:42:49;;;;;;;47.67;12.55;;;;;;;0.01;0.00;59042.03;5119304;27;20385;-54
2022/11/27 19:45:15;;;;;;;41.05;11.32;;;;;;;0.01;0.00;59042.03;5117706;27;20027;-55
2022/11/27 19:47:40;;;;;;;46.47;12.10;;;;;;;0.01;0.00;59042.03;5100181;28;20050;-53
2022/11/27 19:50:06;;;;;;;43.75;10.98;;;;;;;0.01;0.00;59042.03;5099715;27;20027;-54
2022/11/27 19:52:33;;;;;;;41.22;11.52;;;;;;;0.01;0.00;59042.03;5100030;28;20026;-54
2022/11/27 19:54:58;;;;;;;61.95;13.38;;;;;;;0.01;0.00;59042.03;5099480;28;20080;-56
2022/11/27 19:57:23;;;;;;;49.08;11.65;;;;;;;0.01;0.00;59042.03;5098965;28;20040;-55
2022/11/27 19:59:49;;;;;;;48.03;11.65;;;;;;;0.01;0.00;59042.03;5098433;28;20038;-56
2022/11/27 20:02:14;;;;;;;41.65;11.25;;;;;;;0.01;0.00;59042.03;5099884;28;20028;-57
2022/11/27 20:04:40;;;;;;;35.10;11.05;;;;;;;0.01;0.00;59042.03;5065405;28;20029;-57
2022/11/27 20:07:07;;;;;;;45.97;12.48;;;;;;;0.01;0.00;59042.03;5115956;27;20039;-54
2022/11/27 20:09:33;;;;;;;44.53;11.45;;;;;;;0.01;0.00;59042.03;5120473;27;20035;-55
2022/11/27 20:11:58;;;;;;;55.00;13.00;;;;;;;0.01;0.00;59042.03;5119066;27;20039;-54
2022/11/27 20:14:24;;;;;;;55.97;12.98;;;;;;;0.01;0.00;59042.03;5117228;27;20079;-54
2022/11/27 20:16:50;;;;;;;49.10;13.23;;;;;;;0.01;0.00;59042.03;5105270;27;20392;-53
2022/11/27 20:19:16;;;;;;;85.15;15.98;;;;;;;0.01;0.00;59042.03;5097742;28;20035;-54
2022/11/27 20:21:41;;;;;;;48.20;11.23;;;;;;;0.01;0.00;59042.03;5111770;27;20054;-54
2022/11/27 20:24:06;;;;;;;50.20;12.48;;;;;;;0.01;0.00;59042.03;5119000;27;20072;-55
2022/11/27 20:26:33;;;;;;;56.97;14.05;;;;;;;0.01;0.00;59042.03;5118807;27;20046;-53
2022/11/27 20:28:59;;;;;;;42.00;11.68;;;;;;;0.01;0.00;59042.03;5118620;27;20031;-55
2022/11/27 20:31:30;;;;;;;54.67;12.65;;;;;;;0.01;0.00;59042.03;5106608;27;20117;-55
2022/11/27 20:33:59;;;;;;;48.63;12.53;;;;;;;0.01;0.00;59042.03;5099077;28;20031;-57
2022/11/27 20:36:26;;;;;;;54.60;10.88;;;;;;;0.01;0.00;59042.03;5098736;27;20058;-55
2022/11/27 20:38:54;;;;;;;59.28;13.82;;;;;;;0.01;0.00;59042.03;5099258;28;20126;-54
2022/11/27 20:41:21;;;;;;;55.15;12.80;;;;;;;0.01;0.00;59042.03;5098303;27;20032;-53
2022/11/27 20:43:47;;;;;;;46.53;12.77;;;;;;;0.01;0.00;59042.03;5096372;28;20027;-55
2022/11/27 20:46:14;;;;;;;50.95;12.90;;;;;;;0.01;0.00;59042.03;5095069;28;20444;-56
2022/11/27 20:48:40;;;;;;;45.20;13.23;;;;;;;0.01;0.00;59042.03;5098434;28;20051;-56
2022/11/27 20:51:14;;;;;;;43.65;13.20;;;;;;;0.01;0.00;59042.03;5097901;28;20043;-54
2022/11/27 20:53:42;;;;;;;49.50;13.15;;;;;;;0.01;0.00;59042.03;5098367;28;20434;-54
2022/11/27 20:56:09;;;;;;;46.80;13.32;;;;;;;0.01;0.00;59042.03;5098570;28;20035;-55
2022/11/27 20:58:36;;;;;;;46.22;12.85;;;;;;;0.01;0.00;59042.03;5096506;28;21032;-57
2022/11/27 21:01:31;;;;;;;48.63;13.32;;;;;;;0.01;0.00;59042.03;5097064;28;20038;-57
2022/11/27 21:03:59;;;;;;;51.08;12.32;;;;;;;0.01;0.00;59042.03;5098339;28;20121;-55
2022/11/27 21:06:27;;;;;;;48.05;10.35;;;;;;;0.01;0.00;59042.03;5110983;27;20042;-55
2022/11/27 21:08:53;;;;;;;52.95;12.82;;;;;;;0.01;0.00;59042.03;5118595;27;20027;-55
2022/11/27 21:11:25;;;;;;;51.28;11.88;;;;;;;0.01;0.00;59042.03;5107265;27;20060;-55
2022/11/27 21:14:01;;;;;;;55.77;13.17;;;;;;;0.01;0.00;59042.03;5095513;28;20684;-55
2022/11/27 21:16:29;;;;;;;38.83;10.38;;;;;;;0.01;0.00;59042.03;5095676;28;20047;-54
2022/11/27 21:18:57;;;;;;;53.95;13.55;;;;;;;0.01;0.00;59042.03;5096811;28;20046;-56
2022/11/27 21:21:23;;;;;;;46.03;11.15;;;;;;;0.01;0.00;59042.03;5097167;28;20035;-54
2022/11/27 21:23:49;;;;;;;54.38;12.75;;;;;;;0.01;0.00;59042.03;5092948;27;20081;-55
2022/11/27 21:26:15;;;;;;;48.63;11.85;;;;;;;0.01;0.00;59042.03;5093369;28;20032;-55
2022/11/27 21:28:41;;;;;;;45.47;12.80;;;;;;;0.01;0.00;59042.03;5095894;28;20023;-55
2022/11/27 21:31:15;;;;;;;60.97;12.98;;;;;;;0.01;0.00;59042.03;5095407;28;20031;-54
2022/11/27 21:33:47;;;;;;;52.45;13.15;;;;;;;0.01;0.00;59042.03;5097925;28;20088;-55
2022/11/27 21:36:13;;;;;;;;;;;;;;;0.01;0.00;59042.03;5095150;28;20093;-55
2022/11/27 21:38:39;;;;;;;53.45;13.20;;;;;;;0.01;0.00;59042.03;5112680;27;19912;-55
2022/11/27 21:41:04;;;;;;;44.80;11.38;;;;;;;0.01;0.00;59042.03;5096520;28;20042;-55
2022/11/27 21:43:30;;;;;;;40.70;11.80;;;;;;;0.01;0.00;59042.03;5095506;28;20027;-56
2022/11/27 21:45:57;;;;;;;45.50;11.68;;;;;;;0.01;0.00;59042.03;5094288;28;20100;-56
2022/11/27 21:48:22;;;;;;;47.22;12.07;;;;;;;0.01;0.00;59042.03;5097866;28;20120;-56
2022/11/27 21:50:47;;;;;;;45.28;11.85;;;;;;;0.01;0.00;59042.03;5093898;28;20599;-55
2022/11/27 21:53:13;;;;;;;58.95;13.75;;;;;;;0.01;0.00;59042.03;5094060;28;20022;-56
2022/11/27 21:55:40;;;;;;;49.70;13.07;;;;;;;0.01;0.00;59042.03;5093673;28;20035;-55
2022/11/27 21:58:05;;;;;;;45.80;11.65;;;;;;;0.01;0.00;59042.03;5095321;28;20081;-56
2022/11/27 22:00:31;;;;;;;48.78;13.70;;;;;;;0.01;0.00;59042.03;5094910;28;20055;-55
2022/11/27 22:02:56;;;;;;;50.78;13.43;;;;;;;0.01;0.00;59042.03;5097228;28;20644;-54
2022/11/27 22:05:21;;;;;;;53.67;14.32;;;;;;;0.01;0.00;59042.03;5100606;27;20042;-55
2022/11/27 22:07:48;;;;;;;53.83;14.07;;;;;;;0.01;0.00;59042.03;5097446;28;20052;-54
2022/11/27 22:10:13;;;;;;;54.50;14.15;;;;;;;0.01;0.00;59042.03;5096233;28;20039;-54
2022/11/27 22:12:39;;;;;;;57.92;14.98;;;;;;;0.01;0.00;59042.03;5095741;28;20029;-56
2022/11/27 22:15:05;;;;;;;53.92;14.05;;;;;;;0.01;0.00;59042.03;5095820;28;20027;-56
2022/11/27 22:17:31;;;;;;;51.08;12.93;;;;;;;0.01;0.00;59042.03;5096447;28;20027;-56
2022/11/27 22:19:57;;;;;;;56.55;14.18;;;;;;;0.01;0.00;59042.03;5094435;28;20032;-54
2022/11/27 22:22:22;;;;;;;57.42;13.65;;;;;;;0.01;0.00;59042.03;5093376;28;20072;-57
2022/11/27 22:24:47;;;;;;;54.25;14.00;;;;;;;0.01;0.00;59042.03;5094551;28;20136;-57
2022/11/27 22:27:13;;;;;;;57.00;13.65;;;;;;;0.01;0.00;59042.03;5094090;28;20755;-55
2022/11/27 22:29:38;;;;;;;63.25;14.30;;;;;;;0.01;0.00;59042.03;5094384;28;20027;-56
2022/11/27 22:32:03;;;;;;;53.60;13.27;;;;;;;0.01;0.00;59042.03;5096637;28;20069;-56
2022/11/27 22:34:29;;;;;;;57.67;13.30;;;;;;;0.01;0.00;59042.03;5097321;28;20031;-55
2022/11/27 22:36:54;;;;;;;54.20;12.82;;;;;;;0.01;0.00;59042.03;5096655;28;20046;-55
2022/11/27 22:39:20;;;;;;;49.55;12.85;;;;;;;0.01;0.00;59042.03;5096717;28;20087;-57
2022/11/27 22:41:45;;;;;;;60.28;14.35;;;;;;;0.01;0.00;59042.03;5095216;28;20036;-54
2022/11/27 22:44:15;;;;;;;57.38;13.35;;;;;;;0.01;0.00;59042.03;5094572;28;20027;-54
2022/11/27 22:46:41;;;;;;;56.03;13.32;;;;;;;0.01;0.00;59042.03;5095918;28;20027;-54
2022/11/27 22:49:08;;;;;;;50.63;13.13;;;;;;;0.01;0.00;59042.03;5096071;28;20036;-55
2022/11/27 22:51:35;;;;;;;54.28;13.82;;;;;;;0.01;0.00;59042.03;5093940;28;20038;-55
2022/11/27 22:54:02;;;;;;;53.65;13.38;;;;;;;0.01;0.00;59042.03;5094416;28;20034;-55
2022/11/27 22:56:28;;;;;;;51.28;12.90;;;;;;;0.01;0.00;59042.03;5094137;28;20093;-56
2022/11/27 22:58:54;;;;;;;54.35;13.30;;;;;;;0.01;0.00;59042.03;5093579;28;20024;-54
2022/11/27 23:01:22;;;;;;;45.58;12.52;;;;;;;0.01;0.00;59042.03;5094968;28;20761;-55
2022/11/27 23:03:48;;;;;;;45.53;11.38;;;;;;;0.01;0.00;59042.03;5096564;28;20042;-56
2022/11/27 23:06:15;;;;;;;46.10;12.60;;;;;;;0.01;0.00;59042.03;5095443;28;20044;-55
2022/11/27 23:08:42;;;;;;;45.67;12.23;;;;;;;0.01;0.00;59042.03;5096756;28;20019;-55
2022/11/27 23:11:09;;;;;;;53.85;13.23;;;;;;;0.01;0.00;59042.03;5098829;28;20177;-55
2022/11/27 23:13:35;;;;;;;48.75;12.73;;;;;;;0.01;0.00;59042.03;5097776;28;20457;-56
2022/11/27 23:16:02;;;;;;;43.67;12.38;;;;;;;0.01;0.00;59042.03;5099203;28;20551;-54
2022/11/27 23:18:28;;;;;;;54.75;12.95;;;;;;;0.01;0.00;59042.03;5100552;28;20040;-54
2022/11/27 23:20:53;;;;;;;52.10;13.07;;;;;;;0.01;0.00;59042.03;5097158;28;20040;-55
2022/11/27 23:23:18;;;;;;;63.08;13.55;;;;;;;0.01;0.00;59042.03;5095490;28;20038;-54
2022/11/27 23:25:44;;;;;;;45.33;11.40;;;;;;;0.01;0.00;59042.03;5096078;28;20066;-57
2022/11/27 23:28:09;;;;;;;43.50;12.07;;;;;;;0.01;0.00;59042.03;5102654;28;20118;-55
2022/11/27 23:30:35;;;;;;;56.13;13.88;;;;;;;0.01;0.00;59042.03;5102194;28;20039;-55
2022/11/27 23:33:00;;;;;;;51.95;12.60;;;;;;;0.01;0.00;59042.03;5099830;28;20020;-54
2022/11/27 23:35:26;;;;;;;52.58;13.80;;;;;;;0.01;0.00;59042.03;5099468;28;20030;-55
2022/11/27 23:37:51;;;;;;;54.22;13.30;;;;;;;0.01;0.00;59042.03;5098657;28;20027;-55
2022/11/27 23:40:17;;;;;;;49.03;12.93;;;;;;;0.01;0.00;59042.03;5099017;28;20027;-55
2022/11/27 23:42:42;;;;;;;55.10;13.68;;;;;;;0.01;0.00;59042.03;5100129;28;20024;-57
2022/11/27 23:45:08;;;;;;;46.42;12.85;;;;;;;0.01;0.00;59042.03;5099965;28;20590;-54
2022/11/27 23:47:33;;;;;;;52.00;15.10;;;;;;;0.01;0.00;59042.03;5100146;28;20027;-56
2022/11/27 23:49:59;;;;;;;58.38;14.27;;;;;;;0.01;0.00;59042.03;5096363;28;20054;-54
2022/11/27 23:52:24;;;;;;;58.35;13.30;;;;;;;0.01;0.00;59042.03;5096708;27;20044;-56
2022/11/27 23:54:50;;;;;;;46.85;13.25;;;;;;;0.01;0.00;59042.03;5099970;28;20023;-55
2022/11/27 23:57:15;;;;;;;44.63;12.88;;;;;;;0.01;0.00;59042.03;5099787;28;20148;-54
2022/11/27 23:59:41;;;;;;;58.78;13.70;;;;;;;0.01;0.00;59042.03;5099822;28;20430;-55
